createdAt,value
2023-02-19T00:00:04.779Z,99.32
2023-02-19T00:02:42.683Z,99.27
2023-02-19T00:05:12.635Z,99.30
2023-02-19T00:07:41.079Z,98.60
2023-02-19T00:10:09.806Z,98.87
2023-02-19T00:12:38.157Z,98.42
2023-02-19T00:15:07.137Z,98.01
2023-02-19T00:17:35.470Z,98.02
2023-02-19T00:20:03.889Z,97.94
2023-02-19T00:22:33.628Z,97.81
2023-02-19T00:25:02.007Z,97.87
2023-02-19T00:27:30.310Z,97.10
2023-02-19T00:29:58.693Z,97.19
2023-02-19T00:32:27.085Z,96.66
2023-02-19T00:34:55.455Z,97.23
2023-02-19T00:37:23.785Z,97.18
2023-02-19T00:39:53.507Z,97.35
2023-02-19T00:42:21.925Z,97.01
2023-02-19T00:44:50.371Z,97.12
2023-02-19T00:47:21.634Z,97.26
2023-02-19T00:49:50.123Z,97.33
2023-02-19T00:52:18.499Z,97.58
2023-02-19T00:54:46.865Z,97.07
2023-02-19T00:57:16.597Z,97.27
2023-02-19T00:59:45.254Z,97.09
2023-02-19T01:02:13.690Z,97.27
2023-02-19T01:04:42.070Z,97.45
2023-02-19T01:07:10.912Z,97.23
2023-02-19T01:09:39.286Z,97.35
2023-02-19T01:12:08.302Z,97.27
2023-02-19T01:14:37.983Z,96.82
2023-02-19T01:17:06.261Z,96.77
2023-02-19T01:19:34.601Z,96.51
2023-02-19T01:22:03.007Z,95.86
2023-02-19T01:24:31.725Z,95.92
2023-02-19T01:27:00.121Z,95.57
2023-02-19T01:29:28.501Z,95.76
2023-02-19T01:31:58.511Z,95.37
2023-02-19T01:34:27.240Z,95.49
2023-02-19T01:36:55.557Z,95.83
2023-02-19T01:39:23.921Z,95.64
2023-02-19T01:41:52.201Z,96.00
2023-02-19T01:45:14.342Z,96.14
2023-02-19T01:47:44.203Z,95.90
2023-02-19T01:50:12.742Z,95.77
2023-02-19T01:52:41.216Z,95.99
2023-02-19T01:55:13.500Z,96.03
2023-02-19T01:57:47.394Z,95.93
2023-02-19T02:00:18.666Z,95.77
2023-02-19T02:02:53.261Z,95.87
2023-02-19T02:05:35.834Z,95.50
2023-02-19T02:08:22.742Z,95.68
2023-02-19T02:10:52.309Z,95.69
2023-02-19T02:13:21.106Z,96.01
2023-02-19T02:16:01.400Z,96.58
2023-02-19T02:18:44.992Z,96.70
2023-02-19T02:21:44.546Z,96.94
2023-02-19T02:24:45.533Z,97.50
2023-02-19T02:27:41.781Z,97.08
2023-02-19T02:30:36.091Z,97.22
2023-02-19T02:33:16.035Z,96.71
2023-02-19T02:35:49.425Z,96.76
2023-02-19T02:38:22.808Z,96.62
2023-02-19T02:40:51.747Z,96.76
2023-02-19T02:43:20.385Z,96.83
2023-02-19T02:45:50.313Z,96.81
2023-02-19T02:48:37.190Z,96.63
2023-02-19T02:51:15.554Z,96.59
2023-02-19T02:54:18.661Z,96.30
2023-02-19T02:56:49.629Z,96.15
2023-02-19T02:59:23.575Z,96.05
2023-02-19T03:02:14.119Z,96.13
2023-02-19T03:05:09.506Z,95.91
2023-02-19T03:07:42.465Z,95.46
2023-02-19T03:10:18.338Z,95.21
2023-02-19T03:13:04.956Z,94.51
2023-02-19T03:15:56.712Z,94.51
2023-02-19T03:18:47.006Z,94.48
2023-02-19T03:21:18.558Z,94.42
2023-02-19T03:24:05.351Z,94.34
2023-02-19T03:26:36.513Z,94.21
2023-02-19T03:29:25.412Z,94.00
2023-02-19T03:32:04.005Z,94.74
2023-02-19T03:34:39.156Z,95.18
2023-02-19T03:37:14.391Z,95.36
2023-02-19T03:39:45.337Z,95.40
2023-02-19T03:42:24.927Z,95.56
2023-02-19T03:45:12.356Z,96.19
2023-02-19T03:47:49.861Z,97.68
2023-02-19T03:50:25.643Z,97.83
2023-02-19T03:53:06.207Z,98.43
2023-02-19T03:55:42.615Z,99.40
2023-02-19T03:58:16.112Z,100.00
2023-02-19T04:00:52.423Z,100.00
2023-02-19T04:03:27.794Z,100.00
2023-02-19T04:06:03.761Z,100.00
2023-02-19T04:08:36.213Z,100.00
2023-02-19T04:11:07.866Z,100.00
2023-02-19T04:13:44.748Z,100.00
2023-02-19T04:16:21.148Z,100.00
2023-02-19T04:18:53.322Z,100.00
2023-02-19T04:21:24.496Z,100.00
2023-02-19T04:23:53.263Z,100.00
2023-02-19T04:26:23.920Z,100.00
2023-02-19T04:28:52.207Z,100.00
2023-02-19T04:31:20.561Z,100.00
2023-02-19T04:33:49.063Z,100.00
2023-02-19T04:36:17.357Z,100.00
2023-02-19T04:38:47.035Z,99.57
2023-02-19T04:41:15.413Z,99.57
2023-02-19T04:43:43.674Z,99.44
2023-02-19T04:46:12.053Z,99.08
2023-02-19T04:48:40.344Z,98.92
2023-02-19T04:51:09.585Z,99.12
2023-02-19T04:53:38.414Z,99.24
2023-02-19T04:56:09.684Z,99.46
2023-02-19T04:58:38.326Z,99.69
2023-02-19T05:01:07.578Z,99.73
2023-02-19T05:03:36.227Z,100.00
2023-02-19T05:06:05.555Z,100.00
2023-02-19T05:08:34.210Z,100.00
2023-02-19T05:11:04.554Z,100.00
2023-02-19T05:13:35.110Z,100.00
2023-02-19T05:16:05.535Z,100.00
2023-02-19T05:18:35.381Z,100.00
2023-02-19T05:21:03.907Z,100.00
2023-02-19T05:23:32.226Z,100.00
2023-02-19T05:26:00.620Z,100.00
2023-02-19T05:28:29.628Z,100.00
2023-02-19T05:30:59.476Z,100.00
2023-02-19T05:33:27.926Z,100.00
2023-02-19T05:35:57.073Z,100.00
2023-02-19T05:38:25.797Z,100.00
2023-02-19T05:40:54.085Z,100.00
2023-02-19T05:43:22.424Z,100.00
2023-02-19T05:45:50.675Z,100.00
2023-02-19T05:48:20.357Z,100.00
2023-02-19T05:50:48.636Z,100.00
2023-02-19T05:53:16.951Z,100.00
2023-02-19T05:55:45.318Z,100.00
2023-02-19T05:58:13.634Z,100.00
2023-02-19T06:00:41.981Z,100.00
2023-02-19T06:03:10.341Z,100.00
2023-02-19T06:05:40.321Z,100.00
2023-02-19T06:08:08.809Z,100.00
2023-02-19T06:10:38.437Z,100.00
2023-02-19T06:13:06.810Z,100.00
2023-02-19T06:15:35.186Z,100.00
2023-02-19T06:18:04.400Z,100.00
2023-02-19T06:20:32.981Z,100.00
2023-02-19T06:23:02.761Z,100.00
2023-02-19T06:25:31.153Z,100.00
2023-02-19T06:27:59.524Z,100.00
2023-02-19T06:30:27.832Z,100.00
2023-02-19T06:32:56.215Z,100.00
2023-02-19T06:35:24.586Z,100.00
2023-02-19T06:37:52.961Z,100.00
2023-02-19T06:40:22.754Z,100.00
2023-02-19T06:42:51.083Z,100.00
2023-02-19T06:45:19.468Z,100.00
2023-02-19T06:47:48.019Z,100.00
2023-02-19T06:50:16.953Z,100.00
2023-02-19T06:52:45.590Z,100.00
2023-02-19T06:55:14.169Z,100.00
2023-02-19T06:57:44.185Z,100.00
2023-02-19T07:00:13.628Z,100.00
2023-02-19T07:02:42.098Z,100.00
2023-02-19T07:05:11.259Z,100.00
2023-02-19T07:07:39.697Z,100.00
2023-02-19T07:10:08.901Z,100.00
2023-02-19T07:12:40.563Z,100.00
2023-02-19T07:15:11.552Z,100.00
2023-02-19T07:17:40.113Z,100.00
2023-02-19T07:20:09.042Z,100.00
2023-02-19T07:22:37.631Z,100.00
2023-02-19T07:25:06.707Z,100.00
2023-02-19T07:27:35.210Z,100.00
2023-02-19T07:30:04.089Z,100.00
2023-02-19T07:32:33.962Z,100.00
2023-02-19T07:35:02.710Z,100.00
2023-02-19T07:37:31.354Z,100.00
2023-02-19T07:39:59.933Z,100.00
2023-02-19T07:42:28.428Z,100.00
2023-02-19T07:44:58.431Z,100.00
2023-02-19T07:47:28.899Z,100.00
2023-02-19T07:49:58.801Z,100.00
2023-02-19T07:52:27.416Z,100.00
2023-02-19T07:54:56.100Z,100.00
2023-02-19T07:57:31.364Z,100.00
2023-02-19T08:00:00.277Z,100.00
2023-02-19T08:02:45.989Z,100.00
2023-02-19T08:05:16.147Z,100.00
2023-02-19T08:07:45.038Z,100.00
2023-02-19T08:10:32.361Z,100.00
2023-02-19T08:13:22.652Z,100.00
2023-02-19T08:15:55.094Z,100.00
2023-02-19T08:18:27.215Z,100.00
2023-02-19T08:20:58.786Z,100.00
2023-02-19T08:23:27.901Z,100.00
2023-02-19T08:26:02.162Z,100.00
2023-02-19T08:28:31.228Z,100.00
2023-02-19T08:31:08.138Z,100.00
2023-02-19T08:33:36.872Z,100.00
2023-02-19T08:36:09.838Z,100.00
2023-02-19T08:38:40.197Z,100.00
2023-02-19T08:41:10.994Z,100.00
2023-02-19T08:43:39.831Z,100.00
2023-02-19T08:46:12.530Z,100.00
2023-02-19T08:48:41.911Z,100.00
2023-02-19T08:51:13.335Z,100.00
2023-02-19T08:53:44.728Z,100.00
2023-02-19T08:56:16.158Z,100.00
2023-02-19T08:58:45.671Z,100.00
2023-02-19T09:01:18.392Z,100.00
2023-02-19T09:03:47.130Z,100.00
2023-02-19T09:06:20.417Z,100.00
2023-02-19T09:08:48.904Z,100.00
2023-02-19T09:11:17.504Z,100.00
2023-02-19T09:13:46.647Z,100.00
2023-02-19T09:16:15.155Z,99.46
2023-02-19T09:18:45.977Z,99.54
2023-02-19T09:21:14.765Z,98.75
2023-02-19T09:23:44.746Z,98.29
2023-02-19T09:26:14.114Z,97.76
2023-02-19T09:28:43.317Z,96.68
2023-02-19T09:31:15.127Z,94.68
2023-02-19T09:33:44.955Z,93.53
2023-02-19T09:36:16.961Z,93.24
2023-02-19T09:38:47.164Z,91.92
2023-02-19T09:41:29.423Z,91.54
2023-02-19T09:43:59.640Z,90.69
2023-02-19T09:46:35.844Z,91.14
2023-02-19T09:49:08.892Z,92.16
2023-02-19T09:51:39.543Z,93.29
2023-02-19T09:54:22.091Z,93.16
2023-02-19T09:56:50.898Z,92.92
2023-02-19T09:59:24.136Z,93.79
2023-02-19T10:01:59.288Z,94.63
2023-02-19T10:04:28.872Z,94.33
2023-02-19T10:07:03.464Z,94.10
2023-02-19T10:09:33.660Z,93.94
2023-02-19T10:12:02.644Z,93.08
2023-02-19T10:14:37.997Z,92.45
2023-02-19T10:17:08.149Z,93.04
2023-02-19T10:19:38.170Z,92.41
2023-02-19T10:22:06.987Z,92.86
2023-02-19T10:24:44.955Z,93.80
2023-02-19T10:27:15.273Z,94.02
2023-02-19T10:29:45.621Z,93.95
2023-02-19T10:32:20.476Z,93.95
2023-02-19T10:34:51.135Z,94.99
2023-02-19T10:37:20.466Z,96.21
2023-02-19T10:39:52.105Z,96.94
2023-02-19T10:42:23.946Z,98.02
2023-02-19T10:44:58.540Z,98.29
2023-02-19T10:47:32.713Z,98.78
2023-02-19T10:50:04.489Z,98.73
2023-02-19T10:52:36.693Z,98.42
2023-02-19T10:55:31.845Z,98.73
2023-02-19T10:58:24.623Z,98.32
2023-02-19T11:01:13.972Z,97.13
2023-02-19T11:03:42.776Z,96.58
2023-02-19T11:06:16.660Z,95.41
2023-02-19T11:08:54.875Z,93.87
2023-02-19T11:11:31.656Z,92.21
2023-02-19T11:14:05.242Z,91.01
2023-02-19T11:16:45.986Z,91.58
2023-02-19T11:19:26.764Z,91.76
2023-02-19T11:21:59.832Z,91.19
2023-02-19T11:24:35.314Z,91.57
2023-02-19T11:27:08.619Z,91.11
2023-02-19T11:29:37.025Z,90.79
2023-02-19T11:32:29.384Z,90.61
2023-02-19T11:35:25.158Z,90.54
2023-02-19T11:37:59.541Z,90.40
2023-02-19T11:40:44.136Z,91.30
2023-02-19T11:43:33.605Z,92.21
2023-02-19T11:46:09.573Z,93.09
2023-02-19T11:48:54.942Z,94.02
2023-02-19T11:51:52.163Z,94.33
2023-02-19T11:54:52.730Z,95.23
2023-02-19T11:57:40.389Z,95.54
2023-02-19T12:00:25.938Z,96.79
2023-02-19T12:03:30.722Z,97.19
2023-02-19T12:06:20.951Z,97.07
2023-02-19T12:09:22.948Z,97.05
2023-02-19T12:12:37.717Z,96.49
2023-02-19T12:15:39.690Z,95.33
2023-02-19T12:19:10.048Z,93.84
2023-02-19T12:22:16.042Z,92.89
2023-02-19T12:25:39.069Z,91.27
2023-02-19T12:28:30.674Z,90.75
2023-02-19T12:31:35.062Z,88.69
2023-02-19T12:34:31.490Z,87.03
2023-02-19T12:37:17.817Z,87.10
2023-02-19T12:39:59.330Z,87.78
2023-02-19T12:42:45.978Z,87.39
2023-02-19T12:45:22.858Z,87.61
2023-02-19T12:48:02.918Z,88.69
2023-02-19T12:50:33.259Z,90.90
2023-02-19T12:53:08.494Z,93.33
2023-02-19T12:55:42.511Z,93.83
2023-02-19T12:58:18.341Z,93.88
2023-02-19T13:00:53.487Z,94.96
2023-02-19T13:03:32.611Z,94.46
2023-02-19T13:06:10.517Z,95.70
2023-02-19T13:09:05.447Z,95.40
2023-02-19T13:11:41.115Z,93.76
2023-02-19T13:14:20.737Z,93.40
2023-02-19T13:16:57.456Z,95.39
2023-02-19T13:19:27.506Z,94.95
2023-02-19T13:22:23.880Z,94.81
2023-02-19T13:24:53.469Z,94.32
2023-02-19T13:27:48.372Z,95.42
2023-02-19T13:30:34.815Z,95.70
2023-02-19T13:33:19.461Z,95.20
2023-02-19T13:36:08.324Z,95.46
2023-02-19T13:38:41.621Z,95.00
2023-02-19T13:41:30.415Z,94.28
2023-02-19T13:44:03.212Z,93.88
2023-02-19T13:46:41.701Z,94.86
2023-02-19T13:49:43.264Z,93.88
2023-02-19T13:52:42.907Z,93.86
2023-02-19T13:55:52.314Z,93.07
2023-02-19T13:59:01.468Z,94.14
2023-02-19T14:02:17.657Z,92.83
2023-02-19T14:04:55.594Z,92.27
2023-02-19T14:08:04.201Z,92.25
2023-02-19T14:11:03.357Z,90.83
2023-02-19T14:14:01.677Z,91.54
2023-02-19T14:17:04.563Z,91.27
2023-02-19T14:19:52.688Z,91.16
2023-02-19T14:23:10.160Z,91.25
2023-02-19T14:25:47.264Z,91.92
2023-02-19T14:28:42.538Z,91.18
2023-02-19T14:31:19.707Z,89.42
2023-02-19T14:33:51.593Z,90.18
2023-02-19T14:36:32.903Z,89.96
2023-02-19T14:39:07.197Z,90.47
2023-02-19T14:41:41.804Z,90.13
2023-02-19T14:44:19.477Z,90.52
2023-02-19T14:47:00.250Z,90.08
2023-02-19T14:49:36.292Z,88.81
2023-02-19T14:52:08.504Z,88.84
2023-02-19T14:54:43.902Z,89.00
2023-02-19T14:57:20.413Z,89.32
2023-02-19T14:59:58.687Z,89.13
2023-02-19T15:02:28.781Z,88.97
2023-02-19T15:04:58.595Z,89.29
2023-02-19T15:07:31.570Z,88.54
2023-02-19T15:10:05.911Z,88.73
2023-02-19T15:12:41.629Z,88.26
2023-02-19T15:15:18.445Z,87.36
2023-02-19T15:17:47.105Z,87.23
2023-02-19T15:20:21.138Z,87.98
2023-02-19T15:22:50.191Z,87.36
2023-02-19T15:25:22.945Z,88.08
2023-02-19T15:27:52.169Z,88.98
2023-02-19T15:30:25.533Z,88.93
2023-02-19T15:32:56.347Z,89.97
2023-02-19T15:35:25.348Z,91.55
2023-02-19T15:37:55.678Z,92.19
2023-02-19T15:40:32.472Z,93.99
2023-02-19T15:43:02.418Z,94.54
2023-02-19T15:45:40.400Z,95.32
2023-02-19T15:48:15.456Z,95.37
2023-02-19T15:50:49.260Z,95.65
2023-02-19T15:53:20.593Z,96.74
2023-02-19T15:56:00.412Z,97.61
2023-02-19T15:58:34.732Z,98.07
2023-02-19T16:01:08.486Z,98.11
2023-02-19T16:03:37.148Z,98.15
2023-02-19T16:06:11.334Z,96.91
2023-02-19T16:08:41.967Z,96.30
2023-02-19T16:11:34.234Z,96.38
2023-02-19T16:14:24.171Z,95.46
2023-02-19T16:16:56.156Z,94.62
2023-02-19T16:19:28.493Z,94.18
2023-02-19T16:21:57.955Z,93.98
2023-02-19T16:24:32.954Z,93.32
2023-02-19T16:27:04.619Z,93.10
2023-02-19T16:29:34.549Z,93.99
2023-02-19T16:32:10.372Z,93.82
2023-02-19T16:34:42.908Z,93.78
2023-02-19T16:37:37.462Z,93.64
2023-02-19T16:40:59.890Z,93.66
2023-02-19T16:43:32.946Z,93.85
2023-02-19T16:46:01.901Z,92.55
2023-02-19T16:48:32.348Z,91.46
2023-02-19T16:51:01.625Z,90.72
2023-02-19T16:53:30.490Z,90.28
2023-02-19T16:55:59.800Z,90.23
2023-02-19T16:58:29.778Z,89.78
2023-02-19T17:00:58.651Z,89.54
2023-02-19T17:03:27.935Z,89.35
2023-02-19T17:05:57.846Z,89.33
2023-02-19T17:08:37.094Z,88.78
2023-02-19T17:11:08.880Z,88.56
2023-02-19T17:13:41.430Z,88.39
2023-02-19T17:16:18.228Z,87.66
2023-02-19T17:18:46.800Z,87.73
2023-02-19T17:21:18.001Z,86.88
2023-02-19T17:23:46.735Z,86.56
2023-02-19T17:26:16.816Z,87.22
2023-02-19T17:28:49.972Z,87.34
2023-02-19T17:31:19.128Z,86.96
2023-02-19T17:33:47.663Z,86.28
2023-02-19T17:36:19.593Z,85.54
2023-02-19T17:38:48.117Z,85.18
2023-02-19T17:41:17.009Z,84.44
2023-02-19T17:43:45.780Z,84.18
2023-02-19T17:46:18.615Z,83.60
2023-02-19T17:48:47.164Z,83.55
2023-02-19T17:51:15.742Z,83.52
2023-02-19T17:53:46.594Z,83.36
2023-02-19T17:56:19.831Z,83.03
2023-02-19T17:58:49.688Z,83.13
2023-02-19T18:01:19.724Z,83.09
2023-02-19T18:03:48.622Z,82.75
2023-02-19T18:06:17.328Z,82.60
2023-02-19T18:08:50.943Z,81.99
2023-02-19T18:11:22.195Z,82.20
2023-02-19T18:13:52.017Z,81.90
2023-02-19T18:16:22.772Z,81.34
2023-02-19T18:18:51.299Z,81.34
2023-02-19T18:21:19.919Z,81.35
2023-02-19T18:23:48.913Z,81.33
2023-02-19T18:26:21.285Z,81.07
2023-02-19T18:28:50.052Z,80.96
2023-02-19T18:31:20.757Z,81.07
2023-02-19T18:33:50.476Z,80.81
2023-02-19T18:36:18.952Z,81.42
2023-02-19T18:38:47.588Z,82.16
2023-02-19T18:41:20.321Z,82.67
2023-02-19T18:43:49.852Z,82.82
2023-02-19T18:46:24.270Z,82.91
2023-02-19T18:48:54.388Z,82.96
2023-02-19T18:51:23.622Z,83.22
2023-02-19T18:53:54.456Z,83.13
2023-02-19T18:56:23.105Z,83.39
2023-02-19T18:58:51.676Z,83.31
2023-02-19T19:01:20.355Z,83.39
2023-02-19T19:03:48.925Z,83.11
2023-02-19T19:06:19.033Z,82.94
2023-02-19T19:08:48.518Z,82.97
2023-02-19T19:11:17.180Z,82.85
2023-02-19T19:13:47.997Z,82.67
2023-02-19T19:16:16.589Z,82.86
2023-02-19T19:18:45.719Z,82.87
2023-02-19T19:21:18.609Z,83.24
2023-02-19T19:23:47.911Z,83.05
2023-02-19T19:26:17.423Z,83.34
2023-02-19T19:28:46.902Z,83.43
2023-02-19T19:31:17.861Z,83.50
2023-02-19T19:33:48.509Z,83.75
2023-02-19T19:36:24.379Z,83.60
2023-02-19T19:38:53.548Z,83.85
2023-02-19T19:41:27.279Z,84.17
2023-02-19T19:43:55.787Z,84.08
2023-02-19T19:46:24.252Z,84.22
2023-02-19T19:48:54.203Z,84.19
2023-02-19T19:51:40.317Z,84.62
2023-02-19T19:54:08.814Z,84.42
2023-02-19T19:56:42.427Z,84.74
2023-02-19T19:59:12.008Z,84.97
2023-02-19T20:01:40.843Z,85.81
2023-02-19T20:04:11.626Z,86.05
2023-02-19T20:06:41.587Z,86.50
2023-02-19T20:09:12.813Z,86.89
2023-02-19T20:11:49.449Z,86.90
2023-02-19T20:14:22.561Z,87.28
2023-02-19T20:16:51.389Z,87.51
2023-02-19T20:19:21.279Z,87.60
2023-02-19T20:21:56.172Z,87.56
2023-02-19T20:24:28.856Z,87.85
2023-02-19T20:27:00.509Z,87.94
2023-02-19T20:29:30.010Z,87.57
2023-02-19T20:32:00.406Z,87.56
2023-02-19T20:34:29.720Z,87.18
2023-02-19T20:37:04.308Z,87.11
2023-02-19T20:39:33.502Z,87.17
2023-02-19T20:42:02.866Z,87.01
2023-02-19T20:44:34.762Z,87.19
2023-02-19T20:47:03.236Z,87.25
2023-02-19T20:49:34.343Z,87.13
2023-02-19T20:52:09.072Z,86.90
2023-02-19T20:54:40.010Z,86.82
2023-02-19T20:57:09.796Z,86.69
2023-02-19T20:59:40.863Z,86.45
2023-02-19T21:02:24.590Z,86.34
2023-02-19T21:04:53.215Z,86.63
2023-02-19T21:07:23.513Z,86.63
2023-02-19T21:09:52.992Z,86.10
2023-02-19T21:12:24.837Z,86.63
2023-02-19T21:14:53.322Z,86.65
2023-02-19T21:17:21.868Z,86.67
2023-02-19T21:19:53.458Z,86.49
2023-02-19T21:22:23.752Z,86.48
2023-02-19T21:24:53.722Z,86.48
2023-02-19T21:27:22.334Z,86.83
2023-02-19T21:29:54.460Z,86.57
2023-02-19T21:32:23.082Z,87.05
2023-02-19T21:34:51.830Z,86.73
2023-02-19T21:37:22.907Z,86.50
2023-02-19T21:39:54.780Z,86.64
2023-02-19T21:42:23.191Z,86.64
2023-02-19T21:44:51.737Z,87.38
2023-02-19T21:47:20.188Z,87.08
2023-02-19T21:49:48.857Z,86.84
2023-02-19T21:52:18.065Z,87.07
2023-02-19T21:54:46.994Z,87.27
2023-02-19T21:57:17.033Z,87.16
2023-02-19T21:59:45.689Z,87.13
2023-02-19T22:02:14.358Z,87.40
2023-02-19T22:04:42.996Z,87.28
2023-02-19T22:07:11.447Z,87.51
2023-02-19T22:09:39.837Z,87.80
2023-02-19T22:12:08.540Z,87.94
2023-02-19T22:14:38.573Z,88.61
2023-02-19T22:17:09.096Z,88.45
2023-02-19T22:19:37.567Z,88.68
2023-02-19T22:22:06.239Z,88.31
2023-02-19T22:24:34.632Z,88.22
2023-02-19T22:27:03.229Z,88.36
2023-02-19T22:29:31.995Z,88.39
2023-02-19T22:32:02.031Z,88.94
2023-02-19T22:34:30.561Z,89.05
2023-02-19T22:36:58.926Z,88.95
2023-02-19T22:39:28.293Z,88.34
2023-02-19T22:41:56.867Z,88.83
2023-02-19T22:44:28.101Z,88.76
2023-02-19T22:46:57.939Z,88.71
2023-02-19T22:49:27.800Z,88.13
2023-02-19T22:51:59.754Z,88.50
2023-02-19T22:54:28.287Z,88.72
2023-02-19T22:56:57.247Z,88.14
2023-02-19T22:59:25.951Z,88.74
2023-02-19T23:01:55.129Z,88.91
2023-02-19T23:04:29.252Z,89.12
2023-02-19T23:06:57.800Z,89.77
2023-02-19T23:09:29.429Z,90.11
2023-02-19T23:12:03.562Z,90.42
2023-02-19T23:14:33.119Z,90.29
2023-02-19T23:17:01.928Z,90.65
2023-02-19T23:19:33.440Z,90.81
2023-02-19T23:22:05.302Z,90.81
2023-02-19T23:24:34.025Z,91.22
2023-02-19T23:27:02.499Z,91.46
2023-02-19T23:29:31.677Z,91.79
2023-02-19T23:32:02.453Z,91.73
2023-02-19T23:34:32.380Z,91.70
2023-02-19T23:37:02.313Z,92.28
2023-02-19T23:39:33.259Z,92.28
2023-02-19T23:42:04.102Z,92.22
2023-02-19T23:44:36.570Z,92.17
2023-02-19T23:47:04.988Z,92.58
2023-02-19T23:49:34.747Z,92.57
2023-02-19T23:52:03.351Z,92.81
2023-02-19T23:54:31.983Z,92.68
2023-02-19T23:57:00.456Z,93.11
2023-02-19T23:59:28.843Z,93.01
